sensor_id;sensor_type;location;lat;lon;timestamp;temperature;humidity
55785;DHT22;41709;52.536;5.688;2022-10-16T00:01:41;13.40;81.40
55785;DHT22;41709;52.536;5.688;2022-10-16T00:04:06;13.40;81.40
55785;DHT22;41709;52.536;5.688;2022-10-16T00:06:32;13.40;81.50
55785;DHT22;41709;52.536;5.688;2022-10-16T00:08:58;13.50;81.60
55785;DHT22;41709;52.536;5.688;2022-10-16T00:11:29;13.40;81.50
55785;DHT22;41709;52.536;5.688;2022-10-16T00:13:58;13.40;81.70
55785;DHT22;41709;52.536;5.688;2022-10-16T00:16:24;13.40;81.60
55785;DHT22;41709;52.536;5.688;2022-10-16T00:18:50;13.40;81.70
55785;DHT22;41709;52.536;5.688;2022-10-16T00:21:21;13.40;81.90
55785;DHT22;41709;52.536;5.688;2022-10-16T00:23:50;13.40;81.70
55785;DHT22;41709;52.536;5.688;2022-10-16T00:26:17;13.30;81.50
55785;DHT22;41709;52.536;5.688;2022-10-16T00:28:48;13.40;81.60
55785;DHT22;41709;52.536;5.688;2022-10-16T00:31:15;13.40;81.50
55785;DHT22;41709;52.536;5.688;2022-10-16T00:33:41;13.40;81.40
55785;DHT22;41709;52.536;5.688;2022-10-16T00:36:10;13.40;81.10
55785;DHT22;41709;52.536;5.688;2022-10-16T00:38:36;13.50;81.20
55785;DHT22;41709;52.536;5.688;2022-10-16T00:41:05;13.40;80.90
55785;DHT22;41709;52.536;5.688;2022-10-16T00:43:43;13.40;80.90
55785;DHT22;41709;52.536;5.688;2022-10-16T00:48:48;13.50;80.70
55785;DHT22;41709;52.536;5.688;2022-10-16T00:51:14;13.50;80.50
55785;DHT22;41709;52.536;5.688;2022-10-16T00:53:40;13.50;80.40
55785;DHT22;41709;52.536;5.688;2022-10-16T00:56:06;13.50;80.30
55785;DHT22;41709;52.536;5.688;2022-10-16T00:58:32;13.50;80.00
55785;DHT22;41709;52.536;5.688;2022-10-16T01:00:57;13.50;80.00
55785;DHT22;41709;52.536;5.688;2022-10-16T01:03:31;13.50;80.00
55785;DHT22;41709;52.536;5.688;2022-10-16T01:06:18;13.50;79.90
55785;DHT22;41709;52.536;5.688;2022-10-16T01:13:54;13.50;79.60
55785;DHT22;41709;52.536;5.688;2022-10-16T01:16:37;13.40;79.70
55785;DHT22;41709;52.536;5.688;2022-10-16T01:19:26;13.40;79.80
55785;DHT22;41709;52.536;5.688;2022-10-16T01:21:56;13.40;80.00
55785;DHT22;41709;52.536;5.688;2022-10-16T01:27:01;13.40;79.90
55785;DHT22;41709;52.536;5.688;2022-10-16T01:29:33;13.30;79.90
55785;DHT22;41709;52.536;5.688;2022-10-16T01:32:05;13.40;80.00
55785;DHT22;41709;52.536;5.688;2022-10-16T01:34:38;13.30;80.00
55785;DHT22;41709;52.536;5.688;2022-10-16T01:37:13;13.40;80.30
55785;DHT22;41709;52.536;5.688;2022-10-16T01:39:42;13.30;80.10
55785;DHT22;41709;52.536;5.688;2022-10-16T01:42:41;13.30;80.90
55785;DHT22;41709;52.536;5.688;2022-10-16T01:45:08;13.30;80.70
55785;DHT22;41709;52.536;5.688;2022-10-16T01:47:37;13.30;80.60
55785;DHT22;41709;52.536;5.688;2022-10-16T01:50:04;13.30;80.60
55785;DHT22;41709;52.536;5.688;2022-10-16T01:52:33;13.30;80.80
55785;DHT22;41709;52.536;5.688;2022-10-16T01:55:02;13.20;80.90
55785;DHT22;41709;52.536;5.688;2022-10-16T01:57:29;13.30;81.70
55785;DHT22;41709;52.536;5.688;2022-10-16T01:59:58;13.30;81.20
55785;DHT22;41709;52.536;5.688;2022-10-16T02:02:28;13.30;80.60
55785;DHT22;41709;52.536;5.688;2022-10-16T02:05:01;13.40;80.60
55785;DHT22;41709;52.536;5.688;2022-10-16T02:07:27;13.30;81.10
55785;DHT22;41709;52.536;5.688;2022-10-16T02:09:52;13.30;80.80
55785;DHT22;41709;52.536;5.688;2022-10-16T02:12:31;13.30;80.80
55785;DHT22;41709;52.536;5.688;2022-10-16T02:14:58;13.20;81.20
55785;DHT22;41709;52.536;5.688;2022-10-16T02:17:23;13.20;81.30
55785;DHT22;41709;52.536;5.688;2022-10-16T02:19:51;13.20;81.40
55785;DHT22;41709;52.536;5.688;2022-10-16T02:22:25;13.10;81.50
55785;DHT22;41709;52.536;5.688;2022-10-16T02:25:12;13.20;81.80
55785;DHT22;41709;52.536;5.688;2022-10-16T02:27:42;13.20;81.80
55785;DHT22;41709;52.536;5.688;2022-10-16T02:30:20;13.20;81.80
55785;DHT22;41709;52.536;5.688;2022-10-16T02:32:48;13.20;81.80
55785;DHT22;41709;52.536;5.688;2022-10-16T02:35:17;13.30;81.80
55785;DHT22;41709;52.536;5.688;2022-10-16T02:37:44;13.30;81.70
55785;DHT22;41709;52.536;5.688;2022-10-16T02:40:11;13.30;81.60
55785;DHT22;41709;52.536;5.688;2022-10-16T02:42:38;13.40;81.60
55785;DHT22;41709;52.536;5.688;2022-10-16T02:45:06;13.40;81.50
55785;DHT22;41709;52.536;5.688;2022-10-16T02:47:32;13.40;81.60
55785;DHT22;41709;52.536;5.688;2022-10-16T02:49:58;13.40;81.40
55785;DHT22;41709;52.536;5.688;2022-10-16T02:52:24;13.40;81.40
55785;DHT22;41709;52.536;5.688;2022-10-16T02:54:50;13.50;81.50
55785;DHT22;41709;52.536;5.688;2022-10-16T02:57:15;13.50;81.60
55785;DHT22;41709;52.536;5.688;2022-10-16T02:59:41;13.50;81.60
55785;DHT22;41709;52.536;5.688;2022-10-16T03:02:07;13.50;81.50
55785;DHT22;41709;52.536;5.688;2022-10-16T03:04:32;13.50;81.50
55785;DHT22;41709;52.536;5.688;2022-10-16T03:06:58;13.50;81.60
55785;DHT22;41709;52.536;5.688;2022-10-16T03:09:23;13.50;81.70
55785;DHT22;41709;52.536;5.688;2022-10-16T03:11:49;13.50;81.90
55785;DHT22;41709;52.536;5.688;2022-10-16T03:14:14;13.40;82.00
55785;DHT22;41709;52.536;5.688;2022-10-16T03:16:40;13.40;82.20
55785;DHT22;41709;52.536;5.688;2022-10-16T03:19:05;13.40;82.20
55785;DHT22;41709;52.536;5.688;2022-10-16T03:21:31;13.40;82.20
55785;DHT22;41709;52.536;5.688;2022-10-16T03:23:57;13.40;82.40
55785;DHT22;41709;52.536;5.688;2022-10-16T03:26:22;13.40;82.40
55785;DHT22;41709;52.536;5.688;2022-10-16T03:28:48;13.50;82.70
55785;DHT22;41709;52.536;5.688;2022-10-16T03:31:13;13.30;82.70
55785;DHT22;41709;52.536;5.688;2022-10-16T03:33:39;13.40;82.90
55785;DHT22;41709;52.536;5.688;2022-10-16T03:36:05;13.40;82.90
55785;DHT22;41709;52.536;5.688;2022-10-16T03:38:30;13.40;82.80
55785;DHT22;41709;52.536;5.688;2022-10-16T03:40:56;13.40;82.80
55785;DHT22;41709;52.536;5.688;2022-10-16T03:43:21;13.30;82.70
55785;DHT22;41709;52.536;5.688;2022-10-16T03:45:47;13.40;82.90
55785;DHT22;41709;52.536;5.688;2022-10-16T03:48:12;13.30;82.80
55785;DHT22;41709;52.536;5.688;2022-10-16T03:50:38;13.30;82.70
55785;DHT22;41709;52.536;5.688;2022-10-16T03:53:03;13.30;82.80
55785;DHT22;41709;52.536;5.688;2022-10-16T03:55:29;13.30;83.00
55785;DHT22;41709;52.536;5.688;2022-10-16T03:57:55;13.20;83.30
55785;DHT22;41709;52.536;5.688;2022-10-16T04:00:20;13.20;83.40
55785;DHT22;41709;52.536;5.688;2022-10-16T04:02:46;13.20;83.50
55785;DHT22;41709;52.536;5.688;2022-10-16T04:05:11;13.20;83.80
55785;DHT22;41709;52.536;5.688;2022-10-16T04:07:37;13.20;83.80
55785;DHT22;41709;52.536;5.688;2022-10-16T04:10:04;13.20;83.80
55785;DHT22;41709;52.536;5.688;2022-10-16T04:12:29;13.20;83.80
55785;DHT22;41709;52.536;5.688;2022-10-16T04:14:55;13.20;83.90
55785;DHT22;41709;52.536;5.688;2022-10-16T04:17:21;13.20;84.00
55785;DHT22;41709;52.536;5.688;2022-10-16T04:19:46;13.20;84.00
55785;DHT22;41709;52.536;5.688;2022-10-16T04:22:12;13.20;84.10
55785;DHT22;41709;52.536;5.688;2022-10-16T04:24:37;13.20;84.10
55785;DHT22;41709;52.536;5.688;2022-10-16T04:27:03;13.20;84.10
55785;DHT22;41709;52.536;5.688;2022-10-16T04:29:28;13.20;84.20
55785;DHT22;41709;52.536;5.688;2022-10-16T04:31:54;13.20;84.30
55785;DHT22;41709;52.536;5.688;2022-10-16T04:34:19;13.20;84.40
55785;DHT22;41709;52.536;5.688;2022-10-16T04:36:47;13.30;84.20
55785;DHT22;41709;52.536;5.688;2022-10-16T04:39:15;13.30;84.10
55785;DHT22;41709;52.536;5.688;2022-10-16T04:41:40;13.20;84.00
55785;DHT22;41709;52.536;5.688;2022-10-16T04:44:06;13.30;84.00
55785;DHT22;41709;52.536;5.688;2022-10-16T04:46:31;13.20;84.10
55785;DHT22;41709;52.536;5.688;2022-10-16T04:48:57;13.20;84.20
55785;DHT22;41709;52.536;5.688;2022-10-16T04:51:23;13.20;84.10
55785;DHT22;41709;52.536;5.688;2022-10-16T04:53:48;13.20;84.20
55785;DHT22;41709;52.536;5.688;2022-10-16T04:56:14;13.20;84.20
55785;DHT22;41709;52.536;5.688;2022-10-16T04:58:40;13.20;84.30
55785;DHT22;41709;52.536;5.688;2022-10-16T05:01:06;13.20;84.40
55785;DHT22;41709;52.536;5.688;2022-10-16T05:03:31;13.10;84.30
55785;DHT22;41709;52.536;5.688;2022-10-16T05:05:57;13.10;84.40
55785;DHT22;41709;52.536;5.688;2022-10-16T05:08:23;13.20;84.40
55785;DHT22;41709;52.536;5.688;2022-10-16T05:10:48;13.20;84.30
55785;DHT22;41709;52.536;5.688;2022-10-16T05:13:14;13.10;84.20
55785;DHT22;41709;52.536;5.688;2022-10-16T05:15:39;13.20;84.30
55785;DHT22;41709;52.536;5.688;2022-10-16T05:18:05;13.10;84.20
55785;DHT22;41709;52.536;5.688;2022-10-16T05:20:31;13.10;84.30
55785;DHT22;41709;52.536;5.688;2022-10-16T05:22:56;13.10;84.30
55785;DHT22;41709;52.536;5.688;2022-10-16T05:25:22;13.10;84.40
55785;DHT22;41709;52.536;5.688;2022-10-16T05:27:48;13.10;84.40
55785;DHT22;41709;52.536;5.688;2022-10-16T05:30:14;13.20;84.60
55785;DHT22;41709;52.536;5.688;2022-10-16T05:32:40;13.10;84.70
55785;DHT22;41709;52.536;5.688;2022-10-16T05:35:06;13.10;84.60
55785;DHT22;41709;52.536;5.688;2022-10-16T05:37:32;13.10;84.70
55785;DHT22;41709;52.536;5.688;2022-10-16T05:39:57;13.00;85.00
55785;DHT22;41709;52.536;5.688;2022-10-16T05:42:23;13.00;85.40
55785;DHT22;41709;52.536;5.688;2022-10-16T05:44:48;13.00;85.40
55785;DHT22;41709;52.536;5.688;2022-10-16T05:47:14;13.00;85.50
55785;DHT22;41709;52.536;5.688;2022-10-16T05:49:40;13.00;85.60
55785;DHT22;41709;52.536;5.688;2022-10-16T05:52:05;13.00;85.70
55785;DHT22;41709;52.536;5.688;2022-10-16T05:54:31;13.00;85.90
55785;DHT22;41709;52.536;5.688;2022-10-16T05:56:57;12.90;85.90
55785;DHT22;41709;52.536;5.688;2022-10-16T05:59:22;13.00;86.00
55785;DHT22;41709;52.536;5.688;2022-10-16T06:01:48;13.00;86.20
55785;DHT22;41709;52.536;5.688;2022-10-16T06:04:14;12.90;86.20
55785;DHT22;41709;52.536;5.688;2022-10-16T06:06:39;12.90;86.40
55785;DHT22;41709;52.536;5.688;2022-10-16T06:09:05;13.00;86.50
55785;DHT22;41709;52.536;5.688;2022-10-16T06:11:32;13.00;86.50
55785;DHT22;41709;52.536;5.688;2022-10-16T06:14:00;12.90;86.50
55785;DHT22;41709;52.536;5.688;2022-10-16T06:16:28;12.90;86.60
55785;DHT22;41709;52.536;5.688;2022-10-16T06:18:55;12.90;86.90
55785;DHT22;41709;52.536;5.688;2022-10-16T06:21:23;12.80;87.00
55785;DHT22;41709;52.536;5.688;2022-10-16T06:23:52;12.80;87.10
55785;DHT22;41709;52.536;5.688;2022-10-16T06:26:21;12.80;87.20
55785;DHT22;41709;52.536;5.688;2022-10-16T06:28:48;12.80;87.10
55785;DHT22;41709;52.536;5.688;2022-10-16T06:31:14;12.90;87.30
55785;DHT22;41709;52.536;5.688;2022-10-16T06:33:40;12.90;87.20
55785;DHT22;41709;52.536;5.688;2022-10-16T06:36:14;12.90;87.20
55785;DHT22;41709;52.536;5.688;2022-10-16T06:38:40;12.90;87.30
55785;DHT22;41709;52.536;5.688;2022-10-16T06:41:07;12.90;87.40
55785;DHT22;41709;52.536;5.688;2022-10-16T06:43:34;12.90;87.50
55785;DHT22;41709;52.536;5.688;2022-10-16T06:46:05;12.90;87.30
55785;DHT22;41709;52.536;5.688;2022-10-16T06:48:31;12.90;87.10
55785;DHT22;41709;52.536;5.688;2022-10-16T06:53:26;12.90;86.70
55785;DHT22;41709;52.536;5.688;2022-10-16T06:55:51;12.90;86.50
55785;DHT22;41709;52.536;5.688;2022-10-16T06:58:17;12.90;86.50
55785;DHT22;41709;52.536;5.688;2022-10-16T07:00:42;12.90;86.50
55785;DHT22;41709;52.536;5.688;2022-10-16T07:03:08;12.90;86.70
55785;DHT22;41709;52.536;5.688;2022-10-16T07:05:40;13.00;86.90
55785;DHT22;41709;52.536;5.688;2022-10-16T07:08:06;12.90;87.00
55785;DHT22;41709;52.536;5.688;2022-10-16T07:10:33;12.90;87.00
55785;DHT22;41709;52.536;5.688;2022-10-16T07:12:59;13.00;87.10
55785;DHT22;41709;52.536;5.688;2022-10-16T07:15:25;12.90;87.30
55785;DHT22;41709;52.536;5.688;2022-10-16T07:17:51;13.00;87.50
55785;DHT22;41709;52.536;5.688;2022-10-16T07:20:16;13.00;87.50
55785;DHT22;41709;52.536;5.688;2022-10-16T07:22:42;13.10;87.60
55785;DHT22;41709;52.536;5.688;2022-10-16T07:25:08;13.10;87.90
55785;DHT22;41709;52.536;5.688;2022-10-16T07:27:33;13.00;87.80
55785;DHT22;41709;52.536;5.688;2022-10-16T07:29:59;13.00;88.00
55785;DHT22;41709;52.536;5.688;2022-10-16T07:32:25;13.00;88.10
55785;DHT22;41709;52.536;5.688;2022-10-16T07:34:52;13.00;88.00
55785;DHT22;41709;52.536;5.688;2022-10-16T07:37:17;13.00;88.00
55785;DHT22;41709;52.536;5.688;2022-10-16T07:39:43;13.10;88.00
55785;DHT22;41709;52.536;5.688;2022-10-16T07:42:09;13.00;88.10
55785;DHT22;41709;52.536;5.688;2022-10-16T07:44:34;13.00;88.20
55785;DHT22;41709;52.536;5.688;2022-10-16T07:47:00;13.10;88.20
55785;DHT22;41709;52.536;5.688;2022-10-16T07:49:25;13.10;87.80
55785;DHT22;41709;52.536;5.688;2022-10-16T07:51:51;13.20;87.80
55785;DHT22;41709;52.536;5.688;2022-10-16T07:54:16;13.20;87.50
55785;DHT22;41709;52.536;5.688;2022-10-16T07:56:42;13.20;87.30
55785;DHT22;41709;52.536;5.688;2022-10-16T07:59:07;13.20;86.80
55785;DHT22;41709;52.536;5.688;2022-10-16T08:01:33;13.20;86.60
55785;DHT22;41709;52.536;5.688;2022-10-16T08:03:59;13.20;86.50
55785;DHT22;41709;52.536;5.688;2022-10-16T08:06:24;13.20;86.30
55785;DHT22;41709;52.536;5.688;2022-10-16T08:08:50;13.20;86.00
55785;DHT22;41709;52.536;5.688;2022-10-16T08:11:15;13.20;85.80
55785;DHT22;41709;52.536;5.688;2022-10-16T08:13:42;13.20;85.70
55785;DHT22;41709;52.536;5.688;2022-10-16T08:16:07;13.20;85.70
55785;DHT22;41709;52.536;5.688;2022-10-16T08:18:37;13.20;85.40
55785;DHT22;41709;52.536;5.688;2022-10-16T08:21:04;13.30;85.30
55785;DHT22;41709;52.536;5.688;2022-10-16T08:23:30;13.30;85.10
55785;DHT22;41709;52.536;5.688;2022-10-16T08:26:02;13.30;85.10
55785;DHT22;41709;52.536;5.688;2022-10-16T08:28:28;13.40;85.10
55785;DHT22;41709;52.536;5.688;2022-10-16T08:30:54;13.40;84.80
55785;DHT22;41709;52.536;5.688;2022-10-16T08:33:21;13.40;84.90
55785;DHT22;41709;52.536;5.688;2022-10-16T08:35:54;13.40;84.60
55785;DHT22;41709;52.536;5.688;2022-10-16T08:38:20;13.40;84.50
55785;DHT22;41709;52.536;5.688;2022-10-16T08:40:46;13.50;84.70
55785;DHT22;41709;52.536;5.688;2022-10-16T08:43:29;13.50;84.70
55785;DHT22;41709;52.536;5.688;2022-10-16T08:48:48;13.60;85.00
55785;DHT22;41709;52.536;5.688;2022-10-16T08:51:24;13.60;84.90
55785;DHT22;41709;52.536;5.688;2022-10-16T08:53:59;13.60;85.10
55785;DHT22;41709;52.536;5.688;2022-10-16T08:56:27;13.70;84.70
55785;DHT22;41709;52.536;5.688;2022-10-16T08:58:53;13.70;85.10
55785;DHT22;41709;52.536;5.688;2022-10-16T09:01:21;13.70;84.70
55785;DHT22;41709;52.536;5.688;2022-10-16T09:12:26;13.90;85.70
55785;DHT22;41709;52.536;5.688;2022-10-16T09:15:29;13.80;86.10
55785;DHT22;41709;52.536;5.688;2022-10-16T09:18:17;13.90;85.50
55785;DHT22;41709;52.536;5.688;2022-10-16T09:20:59;14.00;85.30
55785;DHT22;41709;52.536;5.688;2022-10-16T09:23:29;14.00;85.80
55785;DHT22;41709;52.536;5.688;2022-10-16T09:25:56;14.10;85.40
55785;DHT22;41709;52.536;5.688;2022-10-16T09:28:23;14.20;84.70
55785;DHT22;41709;52.536;5.688;2022-10-16T09:30:49;14.20;85.40
55785;DHT22;41709;52.536;5.688;2022-10-16T09:33:17;14.20;83.60
55785;DHT22;41709;52.536;5.688;2022-10-16T09:35:45;14.20;83.80
55785;DHT22;41709;52.536;5.688;2022-10-16T09:38:33;14.20;84.90
55785;DHT22;41709;52.536;5.688;2022-10-16T09:41:01;14.20;83.80
55785;DHT22;41709;52.536;5.688;2022-10-16T09:46:31;14.20;84.10
55785;DHT22;41709;52.536;5.688;2022-10-16T09:49:16;14.30;84.00
55785;DHT22;41709;52.536;5.688;2022-10-16T09:51:43;14.20;83.10
55785;DHT22;41709;52.536;5.688;2022-10-16T09:56:36;14.40;82.50
55785;DHT22;41709;52.536;5.688;2022-10-16T09:59:18;14.30;83.00
55785;DHT22;41709;52.536;5.688;2022-10-16T10:04:14;14.40;81.50
55785;DHT22;41709;52.536;5.688;2022-10-16T10:06:53;14.50;81.30
55785;DHT22;41709;52.536;5.688;2022-10-16T10:09:32;14.50;81.80
55785;DHT22;41709;52.536;5.688;2022-10-16T10:12:16;14.60;81.20
55785;DHT22;41709;52.536;5.688;2022-10-16T10:14:44;14.60;81.10
55785;DHT22;41709;52.536;5.688;2022-10-16T10:17:19;14.60;82.00
55785;DHT22;41709;52.536;5.688;2022-10-16T10:19:58;14.70;82.70
55785;DHT22;41709;52.536;5.688;2022-10-16T10:41:25;15.20;78.60
55785;DHT22;41709;52.536;5.688;2022-10-16T10:46:48;15.30;77.90
55785;DHT22;41709;52.536;5.688;2022-10-16T10:49:47;15.30;77.70
55785;DHT22;41709;52.536;5.688;2022-10-16T10:57:56;15.50;75.60
55785;DHT22;41709;52.536;5.688;2022-10-16T11:00:49;15.50;76.20
55785;DHT22;41709;52.536;5.688;2022-10-16T11:05:59;15.40;77.10
55785;DHT22;41709;52.536;5.688;2022-10-16T11:08:34;15.40;76.50
55785;DHT22;41709;52.536;5.688;2022-10-16T11:11:11;15.40;76.90
55785;DHT22;41709;52.536;5.688;2022-10-16T11:13:48;15.50;76.10
55785;DHT22;41709;52.536;5.688;2022-10-16T11:16:21;15.50;76.10
55785;DHT22;41709;52.536;5.688;2022-10-16T11:18:55;15.60;76.00
55785;DHT22;41709;52.536;5.688;2022-10-16T11:21:23;15.70;74.90
55785;DHT22;41709;52.536;5.688;2022-10-16T11:26:26;15.70;75.30
55785;DHT22;41709;52.536;5.688;2022-10-16T11:28:55;15.70;75.40
55785;DHT22;41709;52.536;5.688;2022-10-16T11:31:38;15.70;74.20
55785;DHT22;41709;52.536;5.688;2022-10-16T11:37:00;15.80;75.00
55785;DHT22;41709;52.536;5.688;2022-10-16T11:39:29;15.80;73.70
55785;DHT22;41709;52.536;5.688;2022-10-16T11:44:59;15.90;72.90
55785;DHT22;41709;52.536;5.688;2022-10-16T11:53:16;15.90;71.80
55785;DHT22;41709;52.536;5.688;2022-10-16T11:55:47;16.00;73.00
55785;DHT22;41709;52.536;5.688;2022-10-16T12:08:49;16.30;71.20
55785;DHT22;41709;52.536;5.688;2022-10-16T12:16:57;16.60;68.90
55785;DHT22;41709;52.536;5.688;2022-10-16T12:19:28;16.60;70.10
55785;DHT22;41709;52.536;5.688;2022-10-16T12:21:58;16.80;68.10
55785;DHT22;41709;52.536;5.688;2022-10-16T12:24:34;16.90;66.20
55785;DHT22;41709;52.536;5.688;2022-10-16T12:27:01;16.90;66.30
55785;DHT22;41709;52.536;5.688;2022-10-16T12:29:39;17.00;67.90
55785;DHT22;41709;52.536;5.688;2022-10-16T12:34:47;17.10;67.20
55785;DHT22;41709;52.536;5.688;2022-10-16T12:37:35;17.20;67.70
55785;DHT22;41709;52.536;5.688;2022-10-16T12:40:24;17.20;66.40
55785;DHT22;41709;52.536;5.688;2022-10-16T12:42:50;17.20;66.10
55785;DHT22;41709;52.536;5.688;2022-10-16T12:45:42;17.20;66.50
55785;DHT22;41709;52.536;5.688;2022-10-16T12:48:21;17.10;65.10
55785;DHT22;41709;52.536;5.688;2022-10-16T12:50:47;17.10;64.80
55785;DHT22;41709;52.536;5.688;2022-10-16T12:53:21;17.10;64.80
55785;DHT22;41709;52.536;5.688;2022-10-16T12:56:14;17.10;63.70
55785;DHT22;41709;52.536;5.688;2022-10-16T12:59:06;17.20;63.00
55785;DHT22;41709;52.536;5.688;2022-10-16T13:02:13;17.20;62.60
55785;DHT22;41709;52.536;5.688;2022-10-16T13:07:42;17.20;61.80
55785;DHT22;41709;52.536;5.688;2022-10-16T13:10:14;17.20;61.90
55785;DHT22;41709;52.536;5.688;2022-10-16T13:18:18;17.40;61.80
55785;DHT22;41709;52.536;5.688;2022-10-16T13:29:00;17.50;63.00
55785;DHT22;41709;52.536;5.688;2022-10-16T13:31:26;17.60;63.30
55785;DHT22;41709;52.536;5.688;2022-10-16T13:33:56;17.60;63.40
55785;DHT22;41709;52.536;5.688;2022-10-16T13:36:30;17.70;64.30
55785;DHT22;41709;52.536;5.688;2022-10-16T13:39:13;17.80;63.00
55785;DHT22;41709;52.536;5.688;2022-10-16T13:41:39;18.00;63.60
55785;DHT22;41709;52.536;5.688;2022-10-16T13:44:12;18.10;62.30
55785;DHT22;41709;52.536;5.688;2022-10-16T13:46:38;18.20;61.00
55785;DHT22;41709;52.536;5.688;2022-10-16T13:49:15;18.40;60.60
55785;DHT22;41709;52.536;5.688;2022-10-16T13:51:41;18.40;59.00
55785;DHT22;41709;52.536;5.688;2022-10-16T13:54:10;18.50;58.30
55785;DHT22;41709;52.536;5.688;2022-10-16T13:56:38;18.50;58.40
55785;DHT22;41709;52.536;5.688;2022-10-16T13:59:20;18.60;59.00
55785;DHT22;41709;52.536;5.688;2022-10-16T14:01:47;18.70;59.30
55785;DHT22;41709;52.536;5.688;2022-10-16T14:04:13;18.80;59.60
55785;DHT22;41709;52.536;5.688;2022-10-16T14:06:44;18.80;59.00
55785;DHT22;41709;52.536;5.688;2022-10-16T14:09:16;18.80;58.30
55785;DHT22;41709;52.536;5.688;2022-10-16T14:11:49;18.70;59.10
55785;DHT22;41709;52.536;5.688;2022-10-16T14:14:18;18.60;58.20
55785;DHT22;41709;52.536;5.688;2022-10-16T14:16:44;18.60;59.10
55785;DHT22;41709;52.536;5.688;2022-10-16T14:19:17;18.60;59.80
55785;DHT22;41709;52.536;5.688;2022-10-16T14:21:44;18.60;60.30
55785;DHT22;41709;52.536;5.688;2022-10-16T14:24:13;18.60;60.60
55785;DHT22;41709;52.536;5.688;2022-10-16T14:26:46;18.60;60.40
55785;DHT22;41709;52.536;5.688;2022-10-16T14:29:18;18.50;60.90
55785;DHT22;41709;52.536;5.688;2022-10-16T14:32:00;18.50;61.00
55785;DHT22;41709;52.536;5.688;2022-10-16T14:37:13;18.40;60.70
55785;DHT22;41709;52.536;5.688;2022-10-16T14:39:39;18.30;61.40
55785;DHT22;41709;52.536;5.688;2022-10-16T14:42:14;18.20;62.00
55785;DHT22;41709;52.536;5.688;2022-10-16T14:44:42;18.10;61.20
55785;DHT22;41709;52.536;5.688;2022-10-16T14:47:16;18.00;62.20
55785;DHT22;41709;52.536;5.688;2022-10-16T14:49:42;18.00;62.00
55785;DHT22;41709;52.536;5.688;2022-10-16T14:52:11;18.00;62.50
55785;DHT22;41709;52.536;5.688;2022-10-16T14:54:37;17.90;62.40
55785;DHT22;41709;52.536;5.688;2022-10-16T14:57:04;17.90;63.40
55785;DHT22;41709;52.536;5.688;2022-10-16T14:59:36;17.80;63.20
55785;DHT22;41709;52.536;5.688;2022-10-16T15:04:51;17.80;63.60
55785;DHT22;41709;52.536;5.688;2022-10-16T15:07:17;17.80;63.90
55785;DHT22;41709;52.536;5.688;2022-10-16T15:09:42;17.70;63.90
55785;DHT22;41709;52.536;5.688;2022-10-16T15:12:08;17.70;64.00
55785;DHT22;41709;52.536;5.688;2022-10-16T15:14:34;17.70;64.20
55785;DHT22;41709;52.536;5.688;2022-10-16T15:16:59;17.70;64.80
55785;DHT22;41709;52.536;5.688;2022-10-16T15:19:25;17.60;65.00
55785;DHT22;41709;52.536;5.688;2022-10-16T15:21:50;17.60;64.80
55785;DHT22;41709;52.536;5.688;2022-10-16T15:24:17;17.70;65.30
55785;DHT22;41709;52.536;5.688;2022-10-16T15:26:43;17.60;64.60
55785;DHT22;41709;52.536;5.688;2022-10-16T15:29:11;17.60;64.80
55785;DHT22;41709;52.536;5.688;2022-10-16T15:31:37;17.60;65.10
55785;DHT22;41709;52.536;5.688;2022-10-16T15:34:03;17.60;65.10
55785;DHT22;41709;52.536;5.688;2022-10-16T15:36:33;17.60;65.50
55785;DHT22;41709;52.536;5.688;2022-10-16T15:39:00;17.60;65.50
55785;DHT22;41709;52.536;5.688;2022-10-16T15:41:26;17.50;65.60
55785;DHT22;41709;52.536;5.688;2022-10-16T15:43:52;17.50;65.60
55785;DHT22;41709;52.536;5.688;2022-10-16T15:46:19;17.50;65.60
55785;DHT22;41709;52.536;5.688;2022-10-16T15:48:47;17.50;66.00
55785;DHT22;41709;52.536;5.688;2022-10-16T15:51:12;17.50;66.00
55785;DHT22;41709;52.536;5.688;2022-10-16T15:53:39;17.50;65.90
55785;DHT22;41709;52.536;5.688;2022-10-16T15:56:06;17.50;66.20
55785;DHT22;41709;52.536;5.688;2022-10-16T15:58:33;17.50;66.20
55785;DHT22;41709;52.536;5.688;2022-10-16T16:01:00;17.50;66.20
55785;DHT22;41709;52.536;5.688;2022-10-16T16:03:27;17.50;66.80
55785;DHT22;41709;52.536;5.688;2022-10-16T16:05:53;17.40;66.90
55785;DHT22;41709;52.536;5.688;2022-10-16T16:08:19;17.50;67.00
55785;DHT22;41709;52.536;5.688;2022-10-16T16:10:45;17.40;67.00
55785;DHT22;41709;52.536;5.688;2022-10-16T16:13:10;17.40;67.20
55785;DHT22;41709;52.536;5.688;2022-10-16T16:15:39;17.50;68.00
55785;DHT22;41709;52.536;5.688;2022-10-16T16:18:06;17.40;67.30
55785;DHT22;41709;52.536;5.688;2022-10-16T16:20:31;17.30;67.50
55785;DHT22;41709;52.536;5.688;2022-10-16T16:22:57;17.30;67.10
55785;DHT22;41709;52.536;5.688;2022-10-16T16:25:23;17.30;67.30
55785;DHT22;41709;52.536;5.688;2022-10-16T16:27:48;17.20;67.20
55785;DHT22;41709;52.536;5.688;2022-10-16T16:30:14;17.20;67.10
55785;DHT22;41709;52.536;5.688;2022-10-16T16:32:40;17.10;66.90
55785;DHT22;41709;52.536;5.688;2022-10-16T16:35:06;17.10;67.40
55785;DHT22;41709;52.536;5.688;2022-10-16T16:37:31;17.10;67.80
55785;DHT22;41709;52.536;5.688;2022-10-16T16:39:57;17.00;67.90
55785;DHT22;41709;52.536;5.688;2022-10-16T16:42:26;17.00;68.20
55785;DHT22;41709;52.536;5.688;2022-10-16T16:44:52;16.90;68.20
55785;DHT22;41709;52.536;5.688;2022-10-16T16:47:17;16.90;68.30
55785;DHT22;41709;52.536;5.688;2022-10-16T16:49:43;16.80;68.40
55785;DHT22;41709;52.536;5.688;2022-10-16T16:52:08;16.90;68.60
55785;DHT22;41709;52.536;5.688;2022-10-16T16:54:34;16.70;68.60
55785;DHT22;41709;52.536;5.688;2022-10-16T16:56:59;16.70;68.70
55785;DHT22;41709;52.536;5.688;2022-10-16T16:59:25;16.80;68.70
55785;DHT22;41709;52.536;5.688;2022-10-16T17:01:51;16.60;68.80
55785;DHT22;41709;52.536;5.688;2022-10-16T17:04:17;16.60;69.10
55785;DHT22;41709;52.536;5.688;2022-10-16T17:06:44;16.50;69.40
55785;DHT22;41709;52.536;5.688;2022-10-16T17:09:11;16.50;70.00
55785;DHT22;41709;52.536;5.688;2022-10-16T17:11:40;16.40;70.20
55785;DHT22;41709;52.536;5.688;2022-10-16T17:14:10;16.30;70.20
55785;DHT22;41709;52.536;5.688;2022-10-16T17:16:37;16.30;70.50
55785;DHT22;41709;52.536;5.688;2022-10-16T17:19:09;16.20;70.60
55785;DHT22;41709;52.536;5.688;2022-10-16T17:21:35;16.20;70.90
55785;DHT22;41709;52.536;5.688;2022-10-16T17:24:02;16.20;71.40
55785;DHT22;41709;52.536;5.688;2022-10-16T17:26:28;16.20;71.50
55785;DHT22;41709;52.536;5.688;2022-10-16T17:28:57;16.10;71.60
55785;DHT22;41709;52.536;5.688;2022-10-16T17:31:26;16.10;71.90
55785;DHT22;41709;52.536;5.688;2022-10-16T17:33:52;16.10;71.80
55785;DHT22;41709;52.536;5.688;2022-10-16T17:36:19;16.00;72.00
55785;DHT22;41709;52.536;5.688;2022-10-16T17:38:45;16.00;72.00